Time;durP1;ratioP1;P1;durP2;ratioP2;P2;SDS_P1;SDS_P2;PMS_P1;PMS_P2;Temp;Humidity;BMP_temperature;BMP_pressure;BME280_temperature;BME280_humidity;BME280_pressure;Samples;Min_cycle;Max_cycle;Signal;HPM_P1;HPM_P2
2023/08/25 00:02:18;;;;;;;15.23;11.48;;;18.90;96.60;;;;;;5029319;28;20477;-70
2023/08/25 00:04:43;;;;;;;15.90;11.02;;;19.00;96.80;;;;;;5025973;28;20032;-71
2023/08/25 00:07:09;;;;;;;17.13;11.45;;;19.00;96.60;;;;;;5024620;28;20370;-70
2023/08/25 00:09:35;;;;;;;17.63;11.40;;;19.00;96.40;;;;;;5023725;28;20029;-71
2023/08/25 00:12:01;;;;;;;13.00;10.45;;;19.00;96.30;;;;;;5027703;28;20430;-70
2023/08/25 00:14:26;;;;;;;15.25;11.25;;;19.10;96.30;;;;;;5028246;28;20108;-71
2023/08/25 00:16:52;;;;;;;17.20;11.05;;;19.10;96.00;;;;;;5028487;28;20394;-70
2023/08/25 00:19:17;;;;;;;17.20;10.68;;;19.10;96.00;;;;;;5029120;28;20069;-70
2023/08/25 00:21:43;;;;;;;16.25;10.95;;;19.10;95.90;;;;;;5029572;28;20033;-70
2023/08/25 00:24:09;;;;;;;12.50;10.73;;;19.20;95.80;;;;;;5028276;28;20026;-71
2023/08/25 00:26:36;;;;;;;13.70;10.00;;;19.20;95.90;;;;;;5031696;28;20044;-71
2023/08/25 00:29:02;;;;;;;14.98;10.32;;;19.20;95.80;;;;;;5022479;28;20045;-70
2023/08/25 00:31:28;;;;;;;16.42;10.10;;;19.30;95.70;;;;;;5028639;28;20056;-70
2023/08/25 00:33:54;;;;;;;14.07;10.73;;;19.20;95.70;;;;;;5030135;28;20407;-70
2023/08/25 00:36:19;;;;;;;15.10;10.30;;;19.20;95.80;;;;;;5024834;28;20029;-71
2023/08/25 00:38:45;;;;;;;12.07;10.85;;;19.20;95.60;;;;;;5021469;28;20026;-70
2023/08/25 00:41:10;;;;;;;15.88;10.70;;;19.30;95.80;;;;;;5029037;28;20025;-70
2023/08/25 00:43:38;;;;;;;17.90;11.00;;;19.30;95.70;;;;;;5030603;28;20096;-71
2023/08/25 00:46:03;;;;;;;13.60;9.93;;;19.30;95.70;;;;;;5033085;28;20022;-70
2023/08/25 00:48:29;;;;;;;12.80;10.07;;;19.30;95.40;;;;;;5032339;28;20084;-71
2023/08/25 00:50:55;;;;;;;14.70;10.75;;;19.30;95.40;;;;;;5029940;28;20040;-70
2023/08/25 00:53:22;;;;;;;14.27;10.55;;;19.30;95.40;;;;;;5037354;28;20048;-70
2023/08/25 00:55:48;;;;;;;14.20;10.02;;;19.30;95.40;;;;;;5025850;28;20462;-70
2023/08/25 00:58:16;;;;;;;12.60;10.52;;;19.30;95.60;;;;;;5031959;28;20129;-71
2023/08/25 01:00:43;;;;;;;14.10;10.85;;;19.30;95.70;;;;;;5025645;28;20018;-70
2023/08/25 01:03:09;;;;;;;14.55;11.25;;;19.30;95.70;;;;;;5025856;28;20030;-71
2023/08/25 01:05:35;;;;;;;14.25;10.80;;;19.20;95.70;;;;;;5033554;28;20523;-70
2023/08/25 01:08:00;;;;;;;16.23;10.85;;;19.20;95.70;;;;;;5025780;28;20163;-70
2023/08/25 01:10:33;;;;;;;16.27;10.80;;;19.20;95.80;;;;;;5030255;28;20022;-70
2023/08/25 01:13:08;;;;;;;15.32;10.93;;;19.20;95.80;;;;;;5029466;28;20105;-71
2023/08/25 01:15:35;;;;;;;15.50;10.45;;;19.10;95.80;;;;;;5022384;28;20026;-70
2023/08/25 01:18:22;;;;;;;13.82;10.65;;;19.20;96.00;;;;;;5028489;28;20025;-70
2023/08/25 01:20:48;;;;;;;15.85;11.75;;;19.10;96.00;;;;;;5032317;28;20429;-70
2023/08/25 01:23:30;;;;;;;16.55;10.85;;;19.00;96.10;;;;;;5027641;28;20067;-70
2023/08/25 01:25:57;;;;;;;15.48;11.18;;;19.00;96.10;;;;;;5024187;28;20042;-70
2023/08/25 01:28:24;;;;;;;16.10;10.77;;;19.00;96.20;;;;;;5030164;28;20028;-70
2023/08/25 01:30:50;;;;;;;12.68;10.68;;;18.90;96.20;;;;;;5018543;28;20021;-70
2023/08/25 01:33:16;;;;;;;18.05;12.63;;;18.80;96.50;;;;;;5028438;28;20039;-71
2023/08/25 01:36:14;;;;;;;15.63;12.00;;;18.70;96.50;;;;;;5023637;28;20044;-70
2023/08/25 01:38:59;;;;;;;14.48;12.10;;;18.70;96.70;;;;;;5025058;28;20105;-71
2023/08/25 01:41:44;;;;;;;13.50;11.93;;;18.70;96.80;;;;;;5029948;28;20049;-70
2023/08/25 01:44:13;;;;;;;16.13;12.45;;;18.60;96.80;;;;;;5028716;28;20033;-70
2023/08/25 01:46:43;;;;;;;17.63;12.90;;;18.60;97.00;;;;;;5030895;28;20385;-70
2023/08/25 01:49:10;;;;;;;23.33;14.83;;;18.60;97.10;;;;;;5028559;28;20025;-70
2023/08/25 01:51:36;;;;;;;20.92;14.20;;;18.50;97.20;;;;;;5020926;28;20283;-70
2023/08/25 01:54:01;;;;;;;19.33;14.13;;;18.50;97.20;;;;;;5024176;28;20026;-70
2023/08/25 01:56:27;;;;;;;18.83;13.77;;;18.50;97.20;;;;;;5021469;28;20048;-71
2023/08/25 01:58:52;;;;;;;18.85;14.38;;;18.50;97.20;;;;;;5029037;28;20033;-70
2023/08/25 02:01:18;;;;;;;18.88;14.38;;;18.50;97.20;;;;;;5028234;28;20025;-70
2023/08/25 02:03:43;;;;;;;19.02;13.48;;;18.50;97.30;;;;;;5026784;28;20044;-70
2023/08/25 02:06:09;;;;;;;18.08;14.40;;;18.50;97.40;;;;;;5016928;28;20394;-71
2023/08/25 02:08:35;;;;;;;17.02;14.75;;;18.50;97.40;;;;;;5023110;28;20037;-71
2023/08/25 02:11:01;;;;;;;22.60;14.30;;;18.50;97.40;;;;;;5030515;28;20033;-70
2023/08/25 02:13:27;;;;;;;19.95;14.43;;;18.50;97.50;;;;;;5026203;28;20065;-71
2023/08/25 02:15:53;;;;;;;19.83;14.00;;;18.40;97.50;;;;;;5014415;28;20056;-70
2023/08/25 02:18:18;;;;;;;20.45;14.55;;;18.40;97.50;;;;;;5028701;28;20025;-70
2023/08/25 02:20:44;;;;;;;20.80;14.52;;;18.40;97.50;;;;;;5023800;28;20044;-70
2023/08/25 02:23:10;;;;;;;21.73;15.38;;;18.30;97.50;;;;;;5023619;28;20037;-70
2023/08/25 02:25:35;;;;;;;19.42;14.10;;;18.30;97.60;;;;;;5021548;28;20521;-71
2023/08/25 02:28:01;;;;;;;16.73;13.80;;;18.30;97.50;;;;;;5018980;28;20042;-70
2023/08/25 02:30:26;;;;;;;19.83;14.77;;;18.30;97.70;;;;;;5023171;28;20037;-71
2023/08/25 02:32:52;;;;;;;22.75;14.50;;;18.20;97.60;;;;;;5022662;28;20045;-70
2023/08/25 02:35:17;;;;;;;20.60;15.13;;;18.20;97.70;;;;;;5022071;28;20115;-70
2023/08/25 02:37:57;;;;;;;20.85;14.77;;;18.20;97.70;;;;;;5024371;28;20398;-71
2023/08/25 02:40:23;;;;;;;21.92;14.90;;;18.20;97.90;;;;;;5032597;28;20067;-70
2023/08/25 02:42:49;;;;;;;22.55;15.98;;;18.20;97.90;;;;;;5026641;28;20127;-70
2023/08/25 02:45:14;;;;;;;19.55;15.23;;;18.20;97.90;;;;;;5026655;28;20025;-71
2023/08/25 02:47:40;;;;;;;21.15;16.52;;;18.10;97.80;;;;;;5021020;28;20036;-70
2023/08/25 02:50:05;;;;;;;25.95;16.35;;;18.10;98.10;;;;;;5028903;28;20385;-71
2023/08/25 02:52:31;;;;;;;20.42;16.15;;;18.10;97.90;;;;;;5020907;28;20029;-71
2023/08/25 02:54:56;;;;;;;19.70;16.33;;;18.10;98.10;;;;;;5023429;28;20034;-70
2023/08/25 02:57:22;;;;;;;22.70;17.98;;;18.10;98.10;;;;;;5037052;28;20448;-70
2023/08/25 02:59:47;;;;;;;25.02;16.90;;;18.10;98.10;;;;;;5026830;28;20583;-71
2023/08/25 03:02:13;;;;;;;20.80;17.63;;;18.10;98.10;;;;;;5031951;28;20032;-70
2023/08/25 03:04:39;;;;;;;22.55;17.25;;;18.00;98.20;;;;;;5026985;28;20132;-70
2023/08/25 03:07:04;;;;;;;21.10;18.77;;;18.10;98.30;;;;;;5029867;28;20076;-70
2023/08/25 03:09:29;;;;;;;23.48;18.35;;;18.00;98.20;;;;;;5023872;28;20112;-71
2023/08/25 03:11:55;;;;;;;24.88;18.92;;;18.00;98.30;;;;;;5027228;28;20034;-70
2023/08/25 03:14:20;;;;;;;24.60;18.23;;;18.00;98.30;;;;;;5027474;28;20025;-70
2023/08/25 03:16:46;;;;;;;23.73;17.58;;;18.00;98.10;;;;;;5023167;28;20883;-70
2023/08/25 03:19:11;;;;;;;25.35;18.73;;;18.00;98.30;;;;;;5029029;28;20039;-70
2023/08/25 03:21:37;;;;;;;25.50;18.20;;;18.00;98.30;;;;;;5025378;28;20112;-71
2023/08/25 03:24:03;;;;;;;26.48;17.58;;;18.00;98.40;;;;;;5017149;28;20034;-70
2023/08/25 03:26:28;;;;;;;27.48;18.02;;;17.90;98.40;;;;;;5027887;28;20056;-71
2023/08/25 03:28:54;;;;;;;25.27;19.10;;;17.90;98.40;;;;;;5023872;28;20036;-70
2023/08/25 03:31:20;;;;;;;25.15;19.58;;;17.90;98.50;;;;;;5022459;28;20537;-70
2023/08/25 03:33:45;;;;;;;26.15;19.73;;;17.80;98.40;;;;;;5027741;28;20033;-70
2023/08/25 03:36:11;;;;;;;27.08;19.67;;;17.80;98.50;;;;;;5018465;28;20037;-70
2023/08/25 03:38:36;;;;;;;27.95;19.38;;;17.80;98.50;;;;;;5024836;28;20048;-70
2023/08/25 03:41:02;;;;;;;29.10;20.52;;;17.70;98.50;;;;;;5029895;28;20099;-70
2023/08/25 03:43:27;;;;;;;26.52;19.65;;;17.70;98.60;;;;;;5027791;28;20093;-70
2023/08/25 03:45:53;;;;;;;27.00;20.42;;;17.60;98.50;;;;;;5024135;28;20079;-70
2023/08/25 03:48:18;;;;;;;28.95;21.63;;;17.60;98.60;;;;;;5034108;28;20027;-70
2023/08/25 03:50:47;;;;;;;26.20;21.10;;;17.70;98.80;;;;;;5030546;28;20052;-70
2023/08/25 03:53:13;;;;;;;33.45;21.10;;;17.50;98.60;;;;;;5041960;28;20093;-71
2023/08/25 03:55:39;;;;;;;30.58;22.38;;;17.60;98.90;;;;;;5029965;28;20079;-70
2023/08/25 03:58:04;;;;;;;28.73;22.85;;;17.60;98.80;;;;;;5026330;28;20033;-71
2023/08/25 04:00:30;;;;;;;32.50;23.48;;;17.50;99.00;;;;;;5022945;28;20025;-70
2023/08/25 04:02:55;;;;;;;30.25;23.27;;;17.60;99.00;;;;;;5023873;28;20033;-71
2023/08/25 04:05:21;;;;;;;32.75;24.60;;;17.50;99.00;;;;;;5024024;28;20030;-70
2023/08/25 04:07:46;;;;;;;32.80;24.27;;;17.50;99.00;;;;;;5023457;28;20036;-70
2023/08/25 04:10:12;;;;;;;37.85;26.55;;;17.50;99.00;;;;;;5022691;28;20029;-70
2023/08/25 04:12:37;;;;;;;39.85;25.92;;;17.50;99.20;;;;;;5023905;28;20049;-70
2023/08/25 04:15:03;;;;;;;37.63;26.60;;;17.50;99.20;;;;;;5026699;28;20025;-70
2023/08/25 04:17:30;;;;;;;39.38;27.40;;;17.50;99.20;;;;;;5025367;28;20033;-70
2023/08/25 04:19:55;;;;;;;41.55;27.65;;;17.50;99.20;;;;;;5034270;28;20037;-70
2023/08/25 04:22:21;;;;;;;42.97;27.88;;;17.50;99.20;;;;;;5029157;28;20038;-70
2023/08/25 04:24:47;;;;;;;42.53;28.65;;;17.50;99.30;;;;;;5022772;28;20569;-71
2023/08/25 04:27:12;;;;;;;46.47;29.50;;;17.50;99.30;;;;;;5026268;28;20026;-68
2023/08/25 04:29:38;;;;;;;44.60;29.42;;;17.50;99.30;;;;;;5027294;28;20037;-71
2023/08/25 04:32:03;;;;;;;48.15;30.27;;;17.50;99.20;;;;;;5020144;28;20036;-71
2023/08/25 04:34:29;;;;;;;47.78;31.27;;;17.50;99.30;;;;;;5031057;28;20030;-71
2023/08/25 04:36:54;;;;;;;43.08;28.70;;;17.50;99.30;;;;;;5023948;28;20080;-72
2023/08/25 04:39:20;;;;;;;53.08;31.30;;;17.50;99.30;;;;;;5022860;28;20083;-71
2023/08/25 04:41:45;;;;;;;50.85;31.23;;;17.50;99.40;;;;;;5022442;28;20402;-71
2023/08/25 04:44:11;;;;;;;49.50;30.92;;;17.50;99.30;;;;;;5023888;28;20068;-71
2023/08/25 04:46:36;;;;;;;52.95;32.47;;;17.50;99.40;;;;;;5021040;28;20029;-71
2023/08/25 04:49:02;;;;;;;53.33;32.20;;;17.50;99.30;;;;;;5023605;28;20037;-71
2023/08/25 04:51:28;;;;;;;49.75;32.40;;;17.60;99.40;;;;;;5037313;28;20469;-70
2023/08/25 04:53:53;;;;;;;52.65;32.45;;;17.60;99.30;;;;;;5023448;28;20022;-71
2023/08/25 04:56:18;;;;;;;52.85;33.05;;;17.60;99.30;;;;;;5028427;28;20112;-71
2023/08/25 04:58:44;;;;;;;46.33;31.75;;;17.60;99.30;;;;;;5019105;28;20033;-71
2023/08/25 05:01:09;;;;;;;48.53;31.52;;;17.60;99.20;;;;;;5022392;28;20040;-71
2023/08/25 05:03:35;;;;;;;47.13;31.60;;;17.60;99.30;;;;;;5027887;28;20029;-70
2023/08/25 05:06:00;;;;;;;44.53;30.45;;;17.60;99.20;;;;;;5016783;28;20423;-71
2023/08/25 05:08:26;;;;;;;47.15;30.45;;;17.60;99.30;;;;;;5018781;28;20109;-70
2023/08/25 05:10:51;;;;;;;49.97;31.35;;;17.60;99.30;;;;;;5031590;28;20540;-70
2023/08/25 05:13:17;;;;;;;50.67;31.75;;;17.60;99.20;;;;;;5025973;28;20026;-71
2023/08/25 05:15:43;;;;;;;48.20;30.50;;;17.60;99.30;;;;;;5031258;28;20118;-71
2023/08/25 05:18:08;;;;;;;47.63;30.15;;;17.60;99.20;;;;;;5032923;28;20034;-72
2023/08/25 05:20:34;;;;;;;43.22;29.40;;;17.60;99.20;;;;;;5026647;28;20024;-71
2023/08/25 05:22:59;;;;;;;47.70;30.60;;;17.70;99.30;;;;;;5023632;28;20025;-71
2023/08/25 05:25:25;;;;;;;46.47;30.20;;;17.70;99.30;;;;;;5028176;28;20045;-70
2023/08/25 05:27:50;;;;;;;43.70;30.00;;;17.70;99.20;;;;;;5043981;28;20515;-71
2023/08/25 05:30:16;;;;;;;43.45;29.17;;;17.70;99.20;;;;;;5029665;28;20072;-71
2023/08/25 05:32:41;;;;;;;53.35;31.58;;;17.70;99.20;;;;;;5031485;28;20021;-70
2023/08/25 05:35:08;;;;;;;43.65;30.20;;;17.80;99.20;;;;;;5034202;28;20414;-73
2023/08/25 05:37:34;;;;;;;48.05;30.77;;;17.80;99.10;;;;;;5026007;28;20037;-72
2023/08/25 05:39:59;;;;;;;51.83;31.02;;;17.80;99.10;;;;;;5018373;28;20033;-71
2023/08/25 05:42:27;;;;;;;51.53;30.98;;;17.90;99.10;;;;;;5038843;28;20060;-72
2023/08/25 05:44:52;;;;;;;47.92;30.08;;;17.90;99.00;;;;;;5030735;28;20022;-70
2023/08/25 05:47:18;;;;;;;45.30;30.40;;;18.00;99.00;;;;;;5036576;28;20039;-71
2023/08/25 05:49:43;;;;;;;48.22;30.38;;;18.00;99.00;;;;;;5029158;28;20524;-71
2023/08/25 05:52:09;;;;;;;48.25;30.75;;;18.00;98.90;;;;;;5030915;28;20025;-70
2023/08/25 05:54:34;;;;;;;45.80;30.90;;;18.00;99.00;;;;;;5023024;28;20025;-70
2023/08/25 05:57:00;;;;;;;50.45;31.65;;;18.10;99.00;;;;;;5029793;28;20024;-71
2023/08/25 05:59:25;;;;;;;53.25;31.50;;;18.30;99.00;;;;;;5031908;28;20569;-70
2023/08/25 06:01:50;;;;;;;46.70;30.50;;;18.30;98.80;;;;;;5021882;28;20535;-72
2023/08/25 06:04:16;;;;;;;45.58;29.63;;;18.40;98.80;;;;;;5021168;28;20497;-71
2023/08/25 06:06:41;;;;;;;43.28;28.98;;;18.50;98.70;;;;;;5029308;28;20029;-70
2023/08/25 06:09:08;;;;;;;38.97;28.27;;;18.50;98.60;;;;;;5021267;28;20024;-71
2023/08/25 06:11:34;;;;;;;41.75;28.48;;;18.60;98.60;;;;;;5027531;28;20053;-70
2023/08/25 06:13:59;;;;;;;40.25;28.05;;;18.60;98.30;;;;;;5020337;28;20052;-70
2023/08/25 06:16:26;;;;;;;42.83;28.33;;;18.70;98.30;;;;;;5023177;28;20033;-71
2023/08/25 06:18:52;;;;;;;40.05;26.70;;;18.80;98.30;;;;;;5019458;28;20043;-71
2023/08/25 06:21:17;;;;;;;42.03;29.23;;;18.80;98.20;;;;;;5017560;28;20034;-71
2023/08/25 06:23:43;;;;;;;40.47;27.88;;;18.80;97.80;;;;;;5030067;28;20029;-70
2023/08/25 06:26:09;;;;;;;39.15;26.75;;;18.90;97.70;;;;;;5026284;28;20054;-71
2023/08/25 06:28:35;;;;;;;38.42;27.15;;;18.90;97.70;;;;;;5028933;28;20020;-70
2023/08/25 06:31:01;;;;;;;41.63;27.50;;;19.00;97.50;;;;;;5029429;28;20452;-71
2023/08/25 06:33:29;;;;;;;39.80;27.20;;;19.00;97.40;;;;;;5023499;28;20036;-70
2023/08/25 06:35:56;;;;;;;38.15;27.13;;;19.10;97.40;;;;;;5020527;28;20022;-70
2023/08/25 06:38:22;;;;;;;38.22;27.20;;;19.10;97.30;;;;;;5024421;28;20037;-71
2023/08/25 06:40:48;;;;;;;37.42;25.65;;;19.40;97.40;;;;;;5040957;28;20021;-71
2023/08/25 06:43:13;;;;;;;38.58;26.73;;;19.50;97.10;;;;;;5027911;28;20056;-71
2023/08/25 06:45:39;;;;;;;34.53;26.08;;;19.50;96.80;;;;;;5025388;28;20097;-71
2023/08/25 06:48:04;;;;;;;35.22;25.23;;;19.50;96.60;;;;;;5031758;28;20029;-71
2023/08/25 06:50:30;;;;;;;31.90;23.55;;;19.50;96.30;;;;;;5025198;28;20128;-70
2023/08/25 06:52:55;;;;;;;31.58;23.08;;;19.60;96.30;;;;;;5029396;28;20036;-71
2023/08/25 06:55:22;;;;;;;31.73;23.95;;;19.80;96.20;;;;;;5032350;28;20060;-71
2023/08/25 06:57:48;;;;;;;30.42;22.92;;;20.00;95.90;;;;;;5029019;28;20476;-71
2023/08/25 07:00:15;;;;;;;29.65;22.70;;;20.20;95.40;;;;;;5029896;28;20057;-71
2023/08/25 07:02:42;;;;;;;31.92;22.25;;;20.30;95.10;;;;;;5022944;28;20030;-71
2023/08/25 07:05:09;;;;;;;28.23;20.95;;;20.40;94.90;;;;;;5031236;28;20101;-70
2023/08/25 07:07:36;;;;;;;26.98;21.80;;;20.40;94.60;;;;;;5032484;28;20441;-71
2023/08/25 07:10:02;;;;;;;25.52;21.23;;;20.40;94.30;;;;;;5023986;28;20021;-71
2023/08/25 07:12:27;;;;;;;29.77;22.73;;;20.30;94.40;;;;;;5025495;28;20355;-71
2023/08/25 07:14:53;;;;;;;32.38;24.00;;;20.30;94.50;;;;;;5026156;28;20029;-71
2023/08/25 07:17:19;;;;;;;31.33;22.90;;;20.20;94.50;;;;;;5028327;28;20136;-72
2023/08/25 07:19:45;;;;;;;31.70;25.60;;;20.30;94.50;;;;;;5034916;28;20029;-71
2023/08/25 07:22:10;;;;;;;36.35;26.73;;;20.30;94.00;;;;;;5038257;28;20071;-71
2023/08/25 07:24:36;;;;;;;34.47;25.60;;;20.30;94.20;;;;;;5031327;28;20057;-70
2023/08/25 07:27:01;;;;;;;34.80;25.67;;;20.20;94.40;;;;;;5038097;28;20040;-71
2023/08/25 07:29:27;;;;;;;31.35;25.40;;;20.30;94.40;;;;;;5035377;28;20538;-72
2023/08/25 07:31:53;;;;;;;36.28;27.00;;;20.30;93.90;;;;;;5033189;28;20129;-70
2023/08/25 07:34:18;;;;;;;32.15;25.20;;;20.30;94.10;;;;;;5036890;28;20029;-70
2023/08/25 07:36:44;;;;;;;30.00;24.60;;;20.30;94.00;;;;;;5027149;28;20044;-72
2023/08/25 07:39:10;;;;;;;33.63;26.83;;;20.30;94.00;;;;;;5034812;28;20103;-71
2023/08/25 07:41:35;;;;;;;31.33;24.38;;;20.30;94.00;;;;;;5038249;28;20529;-70
2023/08/25 07:44:02;;;;;;;31.70;24.70;;;20.30;94.00;;;;;;5038580;28;20025;-71
2023/08/25 07:46:27;;;;;;;32.47;25.30;;;20.40;94.10;;;;;;5023626;28;20038;-70
2023/08/25 07:48:53;;;;;;;29.38;24.35;;;20.50;94.10;;;;;;5027556;28;20043;-71
2023/08/25 07:51:18;;;;;;;33.17;24.38;;;20.50;94.00;;;;;;5031007;28;20040;-70
2023/08/25 07:53:44;;;;;;;32.20;24.15;;;20.50;93.70;;;;;;5030853;28;20037;-72
2023/08/25 07:56:10;;;;;;;30.73;23.73;;;20.50;93.90;;;;;;5028353;28;20044;-72
2023/08/25 07:58:36;;;;;;;28.30;24.05;;;20.50;93.80;;;;;;5034987;28;20112;-70
2023/08/25 08:01:02;;;;;;;31.88;24.85;;;20.60;93.80;;;;;;5029819;28;20142;-71
2023/08/25 08:03:28;;;;;;;30.75;24.33;;;20.60;93.80;;;;;;5028361;28;20494;-71
2023/08/25 08:05:54;;;;;;;30.60;24.52;;;20.70;93.50;;;;;;5022966;28;20072;-70
2023/08/25 08:08:19;;;;;;;36.83;23.73;;;20.80;93.20;;;;;;5029036;28;20034;-71
2023/08/25 08:10:45;;;;;;;25.90;21.42;;;20.80;92.90;;;;;;5022196;28;20038;-70
2023/08/25 08:13:10;;;;;;;27.05;22.15;;;20.80;92.40;;;;;;5035108;28;20040;-71
2023/08/25 08:15:36;;;;;;;30.10;22.00;;;21.00;92.80;;;;;;5024863;28;20272;-71
2023/08/25 08:18:01;;;;;;;28.08;21.40;;;21.20;92.30;;;;;;5030052;28;20440;-71
2023/08/25 08:20:27;;;;;;;26.42;21.55;;;21.20;91.90;;;;;;5032414;28;20043;-71
2023/08/25 08:22:53;;;;;;;28.52;21.27;;;21.30;91.90;;;;;;5030750;28;20029;-71
2023/08/25 08:25:19;;;;;;;25.30;20.65;;;21.40;91.80;;;;;;5028784;28;20464;-71
2023/08/25 08:27:45;;;;;;;25.92;20.85;;;21.30;91.70;;;;;;5024818;28;20057;-71
2023/08/25 08:30:11;;;;;;;29.20;21.80;;;21.20;91.70;;;;;;5029686;28;20049;-70
2023/08/25 08:32:38;;;;;;;37.75;28.38;;;21.10;91.60;;;;;;5031262;28;20038;-71
2023/08/25 08:35:08;;;;;;;32.22;25.70;;;21.10;91.50;;;;;;5038007;28;20064;-70
2023/08/25 08:37:34;;;;;;;27.58;22.40;;;21.10;91.50;;;;;;5038304;28;20496;-71
2023/08/25 08:40:00;;;;;;;27.02;21.50;;;21.10;91.50;;;;;;5032846;28;20025;-70
2023/08/25 08:42:27;;;;;;;27.38;22.13;;;21.00;91.70;;;;;;5043154;28;20017;-71
2023/08/25 08:44:56;;;;;;;26.90;21.52;;;21.00;92.00;;;;;;5034376;28;20041;-71
2023/08/25 08:47:22;;;;;;;24.45;21.60;;;21.10;92.20;;;;;;5036313;28;20026;-70
2023/08/25 08:49:49;;;;;;;26.27;21.42;;;21.00;92.10;;;;;;5027398;28;20022;-71
2023/08/25 08:52:16;;;;;;;26.52;22.42;;;21.00;92.50;;;;;;5036141;28;20021;-71
2023/08/25 08:54:43;;;;;;;25.98;20.95;;;21.00;92.20;;;;;;5035069;28;20489;-71
2023/08/25 08:57:11;;;;;;;27.95;21.80;;;20.90;92.20;;;;;;5033352;28;20112;-71
2023/08/25 08:59:36;;;;;;;25.02;20.48;;;21.00;92.60;;;;;;5035177;28;20136;-71
2023/08/25 09:02:04;;;;;;;23.70;19.45;;;21.00;92.00;;;;;;5021123;28;20112;-70
2023/08/25 09:04:30;;;;;;;24.60;19.73;;;21.00;92.80;;;;;;5020899;28;20065;-71
2023/08/25 09:06:58;;;;;;;28.15;20.33;;;20.90;92.50;;;;;;5019567;28;20126;-71
2023/08/25 09:09:24;;;;;;;27.25;19.67;;;21.00;92.40;;;;;;5025593;28;20021;-73
2023/08/25 09:11:49;;;;;;;24.35;18.67;;;21.00;92.00;;;;;;5040462;28;20117;-71
2023/08/25 09:14:29;;;;;;;27.33;19.30;;;21.00;91.50;;;;;;5032003;28;20013;-71
2023/08/25 09:17:00;;;;;;;23.83;17.73;;;21.20;91.70;;;;;;5028489;28;20079;-71
2023/08/25 09:19:30;;;;;;;22.27;17.25;;;21.30;91.30;;;;;;5028408;28;20516;-71
2023/08/25 09:21:56;;;;;;;20.92;16.80;;;21.40;90.70;;;;;;5030479;28;20025;-71
2023/08/25 09:24:22;;;;;;;26.63;17.50;;;21.70;91.00;;;;;;5024987;28;20103;-71
2023/08/25 09:26:48;;;;;;;22.52;16.23;;;21.70;90.10;;;;;;5032294;28;20038;-71
2023/08/25 09:29:14;;;;;;;22.20;16.02;;;21.70;89.90;;;;;;5028898;28;20028;-72
2023/08/25 09:31:40;;;;;;;18.48;15.73;;;21.60;89.40;;;;;;5024980;28;20030;-71
2023/08/25 09:34:07;;;;;;;19.08;14.52;;;21.60;89.60;;;;;;5024168;28;20053;-71
2023/08/25 09:36:33;;;;;;;20.13;14.80;;;21.60;89.10;;;;;;5022170;28;20025;-71
2023/08/25 09:39:00;;;;;;;18.80;14.48;;;21.70;89.50;;;;;;5028387;28;20044;-72
2023/08/25 09:41:28;;;;;;;19.52;14.98;;;21.90;88.70;;;;;;5023393;28;20434;-73
2023/08/25 09:44:01;;;;;;;20.10;14.75;;;21.80;88.90;;;;;;5029711;28;20177;-71
2023/08/25 09:46:27;;;;;;;19.38;15.15;;;21.90;88.50;;;;;;5019848;28;20048;-72
2023/08/25 09:49:04;;;;;;;20.98;15.32;;;21.80;88.50;;;;;;5027794;28;20097;-71
2023/08/25 09:51:35;;;;;;;23.23;15.80;;;21.80;88.60;;;;;;5030595;28;20029;-71
2023/08/25 09:54:10;;;;;;;21.98;15.57;;;21.80;88.70;;;;;;5022749;28;20026;-71
2023/08/25 09:56:37;;;;;;;21.52;16.30;;;21.80;89.10;;;;;;5029755;28;20151;-71
2023/08/25 09:59:04;;;;;;;23.20;16.23;;;21.80;89.20;;;;;;5037670;28;20017;-71
2023/08/25 10:01:38;;;;;;;21.23;16.02;;;21.80;89.00;;;;;;5031662;28;20029;-73
2023/08/25 10:04:05;;;;;;;21.00;16.73;;;22.00;88.90;;;;;;5021644;28;20445;-70
2023/08/25 10:06:32;;;;;;;24.17;17.60;;;22.00;88.70;;;;;;5021206;28;20393;-71
2023/08/25 10:08:58;;;;;;;21.77;18.08;;;22.20;88.60;;;;;;5019822;28;20040;-71
2023/08/25 10:11:27;;;;;;;22.48;17.88;;;22.50;87.20;;;;;;5016327;28;20473;-71
2023/08/25 10:13:54;;;;;;;22.73;17.42;;;22.60;86.40;;;;;;5028205;28;20033;-71
2023/08/25 10:16:22;;;;;;;22.85;16.67;;;22.80;86.70;;;;;;5026245;28;20450;-71
2023/08/25 10:18:49;;;;;;;22.85;17.40;;;22.80;86.60;;;;;;5025825;28;20056;-71
2023/08/25 10:21:22;;;;;;;27.75;19.48;;;22.50;86.60;;;;;;5024112;28;20065;-71
2023/08/25 10:23:51;;;;;;;24.15;19.17;;;22.40;86.60;;;;;;5023359;28;20359;-71
2023/08/25 10:26:17;;;;;;;27.50;19.63;;;22.50;87.10;;;;;;5033602;28;20124;-72
2023/08/25 10:28:45;;;;;;;29.58;21.58;;;22.30;87.30;;;;;;5029305;28;20025;-71
2023/08/25 10:31:12;;;;;;;24.75;19.65;;;22.30;87.10;;;;;;5026988;28;20022;-71
2023/08/25 10:33:51;;;;;;;25.48;20.05;;;22.20;87.20;;;;;;5042781;28;20037;-71
2023/08/25 10:36:19;;;;;;;25.75;20.40;;;22.10;87.70;;;;;;5027150;28;20516;-71
2023/08/25 10:39:06;;;;;;;29.60;21.70;;;22.00;87.50;;;;;;5025363;28;20556;-72
2023/08/25 10:41:39;;;;;;;25.73;19.80;;;22.00;87.50;;;;;;5038389;28;20029;-71
2023/08/25 10:44:21;;;;;;;29.00;20.17;;;22.00;88.40;;;;;;5023766;28;20043;-71
2023/08/25 10:46:49;;;;;;;28.08;21.17;;;22.00;88.20;;;;;;5021414;28;20544;-71
2023/08/25 10:49:15;;;;;;;26.98;20.58;;;22.00;88.00;;;;;;5033860;28;20033;-71
2023/08/25 10:51:41;;;;;;;29.58;20.55;;;22.20;88.00;;;;;;5031272;28;20044;-71
2023/08/25 10:54:16;;;;;;;27.98;20.55;;;22.10;88.20;;;;;;5031223;28;20037;-71
2023/08/25 10:56:42;;;;;;;27.48;21.77;;;22.10;87.80;;;;;;5043131;28;20017;-71
2023/08/25 10:59:09;;;;;;;30.63;21.38;;;22.00;87.80;;;;;;5043090;28;20475;-71
2023/08/25 11:01:38;;;;;;;27.75;21.00;;;21.90;88.30;;;;;;5024130;28;20029;-71
2023/08/25 11:04:11;;;;;;;27.00;19.45;;;21.80;88.90;;;;;;5019933;28;20124;-71
2023/08/25 11:06:46;;;;;;;29.90;19.85;;;21.70;89.50;;;;;;5013508;28;20041;-71
2023/08/25 11:09:32;;;;;;;24.23;18.88;;;21.50;89.60;;;;;;5019342;28;20061;-71
2023/08/25 11:12:03;;;;;;;27.08;19.33;;;21.50;90.20;;;;;;5026214;28;20160;-71
2023/08/25 11:14:29;;;;;;;29.35;19.65;;;21.50;90.20;;;;;;5027535;28;20374;-71
2023/08/25 11:16:58;;;;;;;25.52;20.38;;;21.40;90.50;;;;;;5023807;28;20034;-71
2023/08/25 11:19:27;;;;;;;26.73;19.90;;;21.30;90.80;;;;;;5021833;28;20040;-71
2023/08/25 11:22:00;;;;;;;27.13;19.70;;;21.30;91.20;;;;;;5026199;28;20541;-71
2023/08/25 11:24:26;;;;;;;32.08;20.50;;;21.30;91.20;;;;;;5019564;28;20128;-72
2023/08/25 11:26:51;;;;;;;27.17;20.45;;;21.40;91.50;;;;;;5019542;28;20038;-73
2023/08/25 11:29:18;;;;;;;25.40;19.35;;;21.30;91.20;;;;;;5018021;28;20406;-71
2023/08/25 11:31:44;;;;;;;28.05;21.48;;;21.30;91.10;;;;;;5018186;28;20021;-72
2023/08/25 11:34:10;;;;;;;24.67;19.42;;;21.40;91.00;;;;;;5018867;28;20025;-71
2023/08/25 11:36:36;;;;;;;27.98;21.13;;;21.50;91.50;;;;;;5023311;28;20034;-71
2023/08/25 11:39:01;;;;;;;25.33;20.98;;;21.50;90.90;;;;;;5027624;28;20513;-71
2023/08/25 11:41:28;;;;;;;29.05;21.75;;;21.50;90.80;;;;;;5021075;28;20038;-71
2023/08/25 11:43:55;;;;;;;30.52;23.25;;;21.70;90.30;;;;;;5014054;28;20029;-71
2023/08/25 11:46:21;;;;;;;28.58;21.83;;;21.80;89.80;;;;;;5017744;28;20036;-70
2023/08/25 11:48:50;;;;;;;29.23;21.67;;;21.90;89.00;;;;;;5025597;28;20469;-72
2023/08/25 11:51:17;;;;;;;30.65;20.95;;;22.10;88.70;;;;;;5018574;28;20022;-71
2023/08/25 11:53:44;;;;;;;28.13;21.65;;;22.30;88.00;;;;;;5023713;28;20689;-72
2023/08/25 11:56:15;;;;;;;26.15;20.02;;;22.30;87.60;;;;;;5025533;28;20026;-72
2023/08/25 11:58:41;;;;;;;26.55;19.95;;;22.40;87.50;;;;;;5028175;28;20025;-72
2023/08/25 12:01:09;;;;;;;25.83;19.30;;;22.50;88.40;;;;;;5024416;28;20116;-73
2023/08/25 12:03:35;;;;;;;28.33;20.00;;;22.60;87.80;;;;;;5022396;28;20079;-71
2023/08/25 12:06:05;;;;;;;24.92;18.48;;;22.70;88.20;;;;;;5025826;28;20064;-73
2023/08/25 12:08:31;;;;;;;24.53;18.93;;;22.70;88.10;;;;;;5019688;28;20037;-72
2023/08/25 12:10:57;;;;;;;25.23;16.95;;;22.60;87.40;;;;;;5024403;28;20816;-70
2023/08/25 12:13:29;;;;;;;26.85;20.02;;;22.60;88.20;;;;;;5028258;28;20548;-70
2023/08/25 12:15:55;;;;;;;26.05;20.88;;;22.50;88.00;;;;;;5028890;28;20075;-70
2023/08/25 12:18:22;;;;;;;24.63;18.83;;;22.50;87.70;;;;;;5030568;28;20033;-70
2023/08/25 12:20:48;;;;;;;26.90;19.85;;;22.50;88.20;;;;;;5027343;28;20029;-71
2023/08/25 12:23:14;;;;;;;28.42;20.83;;;22.50;89.00;;;;;;5026031;28;20072;-72
2023/08/25 12:25:42;;;;;;;31.13;20.50;;;22.50;89.00;;;;;;5030642;28;20050;-70
2023/08/25 12:28:08;;;;;;;24.40;19.08;;;22.40;88.00;;;;;;5027692;28;20037;-70